Time;durP1;ratioP1;P1;durP2;ratioP2;P2;SDS_P1;SDS_P2;PMS_P1;PMS_P2;Temp;Humidity;BMP_temperature;BMP_pressure;BME280_temperature;BME280_humidity;BME280_pressure;Samples;Min_cycle;Max_cycle;Signal;HPM_P1;HPM_P2
2021/12/27 00:00:09;;;;;;;20.75;7.82;;;;;;;11.71;51.78;99994.72;5092856;28;20082;-57
2021/12/27 00:02:34;;;;;;;16.08;7.95;;;;;;;11.72;51.60;99995.56;5092760;28;20042;-57
2021/12/27 00:05:00;;;;;;;19.30;7.72;;;;;;;11.73;52.04;99997.22;5092650;28;20023;-57
2021/12/27 00:07:25;;;;;;;15.90;7.32;;;;;;;11.67;51.40;99991.47;5093048;28;20032;-57
2021/12/27 00:09:50;;;;;;;14.52;6.72;;;;;;;11.69;51.77;99991.34;5093107;28;20036;-57
2021/12/27 00:12:16;;;;;;;17.90;8.15;;;;;;;11.68;51.60;100003.03;5092887;28;20032;-57
2021/12/27 00:14:41;;;;;;;18.50;8.27;;;;;;;11.64;52.07;99986.41;5074712;28;20032;-57
2021/12/27 00:17:07;;;;;;;17.05;7.57;;;;;;;11.63;52.14;100000.00;5074948;28;20479;-57
2021/12/27 00:19:32;;;;;;;17.50;8.18;;;;;;;11.60;52.04;100001.16;5073913;28;20119;-57
2021/12/27 00:21:58;;;;;;;22.83;9.23;;;;;;;11.60;52.15;100005.66;5092319;28;20106;-57
2021/12/27 00:24:23;;;;;;;17.35;8.32;;;;;;;11.59;51.62;99993.25;5084404;28;20059;-57
2021/12/27 00:26:49;;;;;;;18.90;8.70;;;;;;;11.57;51.89;99989.88;5065560;28;20044;-58
2021/12/27 00:29:15;;;;;;;17.50;7.80;;;;;;;11.54;52.18;99991.03;5088653;28;20517;-58
2021/12/27 00:31:41;;;;;;;15.82;7.68;;;;;;;11.55;52.28;99986.53;5084415;28;20032;-58
2021/12/27 00:34:07;;;;;;;14.98;8.30;;;;;;;11.53;52.23;99985.84;5065729;28;20495;-57
2021/12/27 00:36:32;;;;;;;18.52;8.23;;;;;;;11.54;51.94;99984.81;5082851;28;20024;-56
2021/12/27 00:38:57;;;;;;;18.08;7.47;;;;;;;11.55;52.46;99983.84;5081915;28;20036;-57
2021/12/27 00:41:23;;;;;;;17.25;7.90;;;;;;;11.41;52.42;99957.59;5083363;28;20020;-56
2021/12/27 00:43:48;;;;;;;17.10;7.88;;;;;;;11.55;51.94;99973.09;5053972;28;20028;-56
2021/12/27 00:46:13;;;;;;;18.33;7.75;;;;;;;11.55;51.94;99971.28;5054643;28;20095;-56
2021/12/27 00:48:39;;;;;;;20.02;8.88;;;;;;;11.55;51.82;99970.44;5072920;28;20465;-56
2021/12/27 00:51:04;;;;;;;19.25;8.18;;;;;;;11.55;52.38;99959.69;5072552;28;20512;-56
2021/12/27 00:53:30;;;;;;;17.63;6.60;;;;;;;11.55;52.70;99970.44;5072571;28;20423;-56
2021/12/27 00:55:55;;;;;;;17.42;8.73;;;;;;;11.53;52.33;99964.38;5072505;28;20032;-56
2021/12/27 00:58:21;;;;;;;16.92;7.80;;;;;;;11.54;52.15;99968.72;5072396;28;20020;-56
2021/12/27 01:00:46;;;;;;;18.10;6.97;;;;;;;11.54;52.28;99960.69;5071525;28;20029;-57
2021/12/27 01:03:12;;;;;;;21.25;7.85;;;;;;;11.53;52.74;99959.03;5071965;28;20033;-55
2021/12/27 01:05:37;;;;;;;19.02;7.57;;;;;;;11.53;51.86;99961.72;5072233;28;20044;-56
2021/12/27 01:08:05;;;;;;;19.15;6.50;;;;;;;11.56;52.96;99956.84;5069548;28;20117;-55
2021/12/27 01:10:59;;;;;;;15.43;7.88;;;;;;;11.60;52.34;99957.38;5054566;28;20090;-56
2021/12/27 01:13:38;;;;;;;18.05;8.38;;;;;;;11.61;52.18;99961.75;5071362;28;20021;-56
2021/12/27 01:18:32;;;;;;;18.95;7.47;;;;;;;11.65;52.06;99966.63;5072368;28;20020;-57
2021/12/27 01:20:58;;;;;;;21.23;7.47;;;;;;;11.68;52.07;99957.44;5071937;28;20393;-57
2021/12/27 01:23:24;;;;;;;18.73;7.68;;;;;;;11.70;52.27;99952.78;5060261;28;20041;-56
2021/12/27 01:25:49;;;;;;;19.60;8.02;;;;;;;11.72;52.49;99949.97;5082457;28;20040;-57
2021/12/27 01:28:16;;;;;;;16.20;7.60;;;;;;;11.72;52.43;99945.44;5083602;28;20032;-57
2021/12/27 01:30:47;;;;;;;18.10;7.78;;;;;;;11.75;53.03;99952.31;5065392;28;20024;-55
2021/12/27 01:33:14;;;;;;;17.75;8.90;;;;;;;11.73;52.48;99947.09;5082291;28;20047;-58
2021/12/27 01:35:39;;;;;;;18.42;8.77;;;;;;;11.73;52.66;99940.88;5066270;28;20566;-57
2021/12/27 01:38:05;;;;;;;17.45;8.75;;;;;;;11.72;51.92;99949.97;5068820;28;20028;-57
2021/12/27 01:40:31;;;;;;;20.60;8.50;;;;;;;11.68;52.83;99941.34;5085639;28;20028;-57
2021/12/27 01:43:15;;;;;;;19.42;8.77;;;;;;;11.73;52.94;99952.47;5085024;28;20024;-57
2021/12/27 01:45:45;;;;;;;19.70;9.27;;;;;;;11.75;52.78;99955.00;5086947;28;20024;-55
2021/12/27 01:48:11;;;;;;;20.65;8.63;;;;;;;11.73;53.22;99948.94;5048358;28;20033;-56
2021/12/27 01:50:39;;;;;;;17.52;8.27;;;;;;;11.75;52.91;99938.91;5066966;28;20020;-56
2021/12/27 01:53:05;;;;;;;26.27;9.48;;;;;;;11.78;52.59;99944.78;5082386;28;20020;-57
2021/12/27 01:55:30;;;;;;;22.55;9.10;;;;;;;11.81;53.08;99944.47;5045286;28;20021;-56
2021/12/27 01:57:56;;;;;;;22.67;8.85;;;;;;;11.80;52.19;99941.94;5057623;28;20028;-56
2021/12/27 02:00:21;;;;;;;19.50;8.60;;;;;;;11.82;52.13;99937.25;5075286;28;20021;-56
2021/12/27 02:02:47;;;;;;;16.98;8.43;;;;;;;11.82;52.23;99934.56;5057750;28;20024;-55
2021/12/27 02:05:14;;;;;;;18.67;7.80;;;;;;;11.83;52.50;99939.81;5075490;28;20027;-55
2021/12/27 02:07:40;;;;;;;19.50;8.48;;;;;;;11.81;52.47;99927.53;5074731;28;20090;-57
2021/12/27 02:10:06;;;;;;;21.05;8.90;;;;;;;11.85;52.38;99935.09;5075648;28;20028;-56
2021/12/27 02:12:31;;;;;;;21.40;9.20;;;;;;;11.83;52.45;99929.06;5076535;28;20028;-56
2021/12/27 02:14:57;;;;;;;21.00;9.82;;;;;;;11.87;53.02;99935.78;5042480;28;20027;-56
2021/12/27 02:17:23;;;;;;;18.77;8.38;;;;;;;11.89;52.58;99939.13;5076321;28;20025;-57
2021/12/27 02:19:52;;;;;;;16.13;8.52;;;;;;;11.92;52.91;99936.13;5074861;28;20104;-57
2021/12/27 02:22:18;;;;;;;14.38;7.38;;;;;;;11.95;53.14;99937.69;5058511;28;20016;-57
2021/12/27 02:24:43;;;;;;;17.52;7.70;;;;;;;11.97;52.27;99928.47;5074488;28;20048;-57
2021/12/27 02:27:13;;;;;;;16.92;8.20;;;;;;;12.01;52.79;99934.34;5078598;28;20024;-56
2021/12/27 02:29:38;;;;;;;20.55;7.43;;;;;;;12.02;52.85;99928.84;5078532;28;20056;-55
2021/12/27 02:32:04;;;;;;;14.52;7.65;;;;;;;12.07;52.42;99923.81;5078284;28;20023;-55
2021/12/27 02:34:29;;;;;;;17.60;8.68;;;;;;;12.11;52.96;99930.56;5096344;28;20031;-56
2021/12/27 02:36:55;;;;;;;22.10;9.00;;;;;;;12.15;52.32;99921.16;5096410;28;20388;-56
2021/12/27 02:39:20;;;;;;;20.85;9.23;;;;;;;12.19;52.82;99924.38;5096393;28;20476;-57
2021/12/27 02:41:45;;;;;;;19.77;8.68;;;;;;;12.22;51.96;99918.69;5096133;28;20389;-57
2021/12/27 02:44:11;;;;;;;17.00;8.60;;;;;;;12.24;52.33;99914.81;5096116;28;20023;-56
2021/12/27 02:46:36;;;;;;;20.73;8.85;;;;;;;12.27;52.14;99925.25;5077772;28;20023;-57
2021/12/27 02:49:02;;;;;;;16.17;7.53;;;;;;;12.28;52.27;99916.16;5095862;28;20065;-57
2021/12/27 02:51:28;;;;;;;20.15;7.90;;;;;;;12.31;52.59;99909.63;5095964;28;20050;-56
2021/12/27 02:53:53;;;;;;;16.00;7.35;;;;;;;12.31;52.26;99903.44;5095954;28;20019;-56
2021/12/27 02:56:19;;;;;;;18.05;8.00;;;;;;;12.33;52.33;99896.06;5095909;28;20067;-57
2021/12/27 02:58:46;;;;;;;22.90;7.75;;;;;;;12.39;52.47;99911.53;5095930;28;20020;-56
2021/12/27 03:01:14;;;;;;;16.25;8.32;;;;;;;12.40;52.54;99907.81;5095757;28;20024;-56
2021/12/27 03:03:40;;;;;;;18.45;8.40;;;;;;;12.42;52.06;99904.00;5077707;28;20028;-56
2021/12/27 03:06:06;;;;;;;21.90;10.02;;;;;;;12.44;52.58;99893.06;5077406;28;20487;-56
2021/12/27 03:08:33;;;;;;;16.60;8.65;;;;;;;12.41;52.23;99888.88;5095545;28;20034;-56
2021/12/27 03:10:59;;;;;;;17.13;9.20;;;;;;;12.47;51.87;99898.97;5077262;28;20102;-55
2021/12/27 03:13:30;;;;;;;19.45;9.05;;;;;;;12.49;52.46;99902.31;5095229;28;20050;-56
2021/12/27 03:15:58;;;;;;;18.73;9.18;;;;;;;12.51;52.62;99902.97;5095636;28;20028;-55
2021/12/27 03:18:24;;;;;;;21.98;9.05;;;;;;;12.52;52.30;99895.78;5095473;28;20020;-55
2021/12/27 03:20:50;;;;;;;19.10;8.88;;;;;;;12.54;52.62;99901.81;5095505;28;20039;-56
2021/12/27 03:23:16;;;;;;;19.75;10.10;;;;;;;12.55;52.43;99893.59;5095517;28;20055;-56
2021/12/27 03:25:42;;;;;;;16.88;8.57;;;;;;;12.55;52.77;99882.84;5095319;28;20389;-56
2021/12/27 03:28:07;;;;;;;19.85;9.20;;;;;;;12.56;52.78;99881.00;5095245;28;20032;-55
2021/12/27 03:30:33;;;;;;;26.83;9.35;;;;;;;12.59;52.10;99894.94;5093929;28;20468;-56
2021/12/27 03:32:59;;;;;;;25.25;10.73;;;;;;;12.61;52.80;99884.03;5077019;28;20024;-55
2021/12/27 03:35:27;;;;;;;14.38;8.48;;;;;;;12.63;51.90;99882.03;5077154;28;20024;-56
2021/12/27 03:37:55;;;;;;;17.10;8.68;;;;;;;12.61;52.76;99879.50;5095069;28;20031;-56
2021/12/27 03:40:22;;;;;;;20.33;8.80;;;;;;;12.61;52.92;99874.13;5094638;28;20020;-55
2021/12/27 03:42:50;;;;;;;16.60;8.82;;;;;;;12.55;51.81;99856.00;5094979;28;20492;-56
2021/12/27 03:45:18;;;;;;;15.95;8.70;;;;;;;12.66;51.90;99871.78;5094981;28;20590;-55
2021/12/27 03:47:43;;;;;;;19.23;8.13;;;;;;;12.67;52.91;99867.25;5076714;28;20050;-55
2021/12/27 03:50:09;;;;;;;14.55;8.10;;;;;;;12.68;52.94;99871.59;5095049;28;20028;-55
2021/12/27 03:52:34;;;;;;;19.38;8.10;;;;;;;12.68;52.92;99867.09;5094936;28;20050;-55
2021/12/27 03:55:00;;;;;;;16.08;7.93;;;;;;;12.66;52.02;99866.41;5094587;28;20051;-56
2021/12/27 03:57:26;;;;;;;15.93;7.47;;;;;;;12.69;51.91;99859.88;5075846;28;20027;-56
2021/12/27 04:00:15;;;;;;;10.93;6.55;;;;;;;12.70;52.00;99853.50;5094547;28;20039;-55
2021/12/27 04:02:37;;;;;;;13.77;6.88;;;;;;;12.69;51.61;99859.88;5094604;28;20027;-55
2021/12/27 04:05:04;;;;;;;11.27;6.88;;;;;;;12.71;52.03;99863.22;5094783;28;20024;-55
2021/12/27 04:07:34;;;;;;;13.30;6.00;;;;;;;12.71;51.83;99868.59;5094590;28;20111;-58
2021/12/27 04:09:59;;;;;;;13.23;6.50;;;;;;;12.71;51.66;99855.16;5094287;28;20031;-58
2021/12/27 04:12:24;;;;;;;12.70;5.90;;;;;;;12.69;52.05;99858.03;5076285;28;20019;-58
2021/12/27 04:14:49;;;;;;;13.77;6.18;;;;;;;12.71;51.55;99863.22;5094515;28;20047;-55
2021/12/27 04:17:15;;;;;;;15.60;6.80;;;;;;;12.72;51.66;99859.53;5094356;28;20081;-56
2021/12/27 04:19:40;;;;;;;8.13;4.95;;;;;;;12.71;51.53;99849.78;5094686;28;20384;-55
2021/12/27 04:22:05;;;;;;;12.82;5.35;;;;;;;12.73;51.66;99853.97;5094449;28;20048;-56
2021/12/27 04:24:31;;;;;;;12.07;5.75;;;;;;;12.72;52.04;99840.72;5094229;28;20078;-55
2021/12/27 04:26:56;;;;;;;14.20;5.50;;;;;;;12.71;52.10;99836.34;5094025;28;20373;-57
2021/12/27 04:29:22;;;;;;;13.05;6.15;;;;;;;12.69;51.74;99833.00;5094359;28;20060;-57
2021/12/27 04:31:47;;;;;;;14.13;6.25;;;;;;;12.70;51.84;99832.00;5093636;28;20529;-57
2021/12/27 04:34:12;;;;;;;12.10;6.18;;;;;;;12.71;52.64;99836.34;5094120;28;20070;-57
2021/12/27 04:36:38;;;;;;;13.68;6.88;;;;;;;12.68;52.20;99836.69;5093769;28;20032;-57
2021/12/27 04:39:03;;;;;;;12.23;6.28;;;;;;;12.67;52.33;99827.78;5076433;28;20055;-56
2021/12/27 04:41:28;;;;;;;14.88;6.55;;;;;;;12.69;52.86;99833.84;5094165;28;20416;-56
2021/12/27 04:43:54;;;;;;;13.70;6.68;;;;;;;12.69;52.55;99827.63;5093989;28;20059;-55
2021/12/27 04:46:19;;;;;;;18.17;7.00;;;;;;;12.69;52.26;99838.38;5094114;28;20503;-58
2021/12/27 04:48:45;;;;;;;13.18;6.60;;;;;;;12.67;52.36;99824.28;5076208;28;20514;-56
2021/12/27 04:51:10;;;;;;;12.20;6.63;;;;;;;12.69;51.95;99827.63;5093938;28;20024;-55
2021/12/27 04:53:36;;;;;;;14.82;6.97;;;;;;;12.67;52.72;99835.03;5076253;28;20016;-55
2021/12/27 04:56:02;;;;;;;11.70;6.32;;;;;;;12.69;52.04;99833.84;5094214;28;20103;-56
2021/12/27 04:58:27;;;;;;;17.58;7.07;;;;;;;12.70;52.22;99834.69;5076071;28;20451;-58
2021/12/27 05:00:53;;;;;;;13.48;6.13;;;;;;;12.72;52.42;99840.72;5093600;28;20024;-57
2021/12/27 05:03:19;;;;;;;13.32;6.18;;;;;;;12.71;51.88;99836.34;5075948;28;20020;-56
2021/12/27 05:05:46;;;;;;;12.45;7.03;;;;;;;12.73;52.05;99840.53;5094051;28;20088;-55
2021/12/27 05:08:11;;;;;;;15.05;7.03;;;;;;;12.74;51.72;99836.03;5093751;28;20016;-58
2021/12/27 05:10:37;;;;;;;13.05;6.32;;;;;;;12.73;52.31;99845.91;5097346;28;20030;-57
2021/12/27 05:13:03;;;;;;;11.80;6.10;;;;;;;12.74;51.71;99833.34;5097519;28;20015;-58
2021/12/27 05:15:29;;;;;;;15.50;7.38;;;;;;;12.72;52.16;99827.28;5079353;28;20111;-58
2021/12/27 05:17:54;;;;;;;12.43;6.18;;;;;;;12.75;52.21;99837.72;5097845;28;20389;-56
2021/12/27 05:20:20;;;;;;;10.82;6.55;;;;;;;12.76;52.96;99823.25;5097784;28;20112;-56
2021/12/27 05:22:45;;;;;;;12.57;5.90;;;;;;;12.76;51.49;99817.88;5097875;28;20039;-56
2021/12/27 05:25:11;;;;;;;11.07;5.72;;;;;;;12.74;52.01;99818.06;5097504;28;20048;-56
2021/12/27 05:27:38;;;;;;;12.43;5.50;;;;;;;12.77;51.73;99816.88;5079708;28;20059;-56
2021/12/27 05:30:04;;;;;;;8.55;5.70;;;;;;;12.75;51.70;99816.22;5079823;28;20027;-57
2021/12/27 05:32:30;;;;;;;13.13;6.40;;;;;;;12.75;52.66;99814.38;5097189;28;20038;-59
2021/12/27 05:34:55;;;;;;;9.57;5.22;;;;;;;12.74;51.84;99811.84;5097340;28;20028;-57
2021/12/27 05:37:21;;;;;;;11.05;5.82;;;;;;;12.71;51.54;99810.31;5097394;28;20024;-57
2021/12/27 05:39:47;;;;;;;7.28;4.88;;;;;;;12.72;52.66;99811.16;5097049;28;20388;-58
2021/12/27 05:42:13;;;;;;;7.68;4.78;;;;;;;12.68;52.56;99816.03;5097530;28;20488;-56
2021/12/27 05:44:38;;;;;;;8.55;5.03;;;;;;;12.66;52.25;99818.06;5078866;28;20031;-58
2021/12/27 05:47:04;;;;;;;8.75;4.75;;;;;;;12.62;52.38;99818.53;5097341;28;20119;-56
2021/12/27 05:49:29;;;;;;;10.13;5.22;;;;;;;12.60;51.92;99810.66;5096662;28;20044;-56
2021/12/27 05:51:54;;;;;;;7.97;4.68;;;;;;;12.60;51.73;99815.19;5097215;28;20074;-56
2021/12/27 05:54:20;;;;;;;7.95;4.20;;;;;;;12.58;52.56;99801.94;5062560;28;20020;-56
2021/12/27 05:56:47;;;;;;;8.73;4.45;;;;;;;12.55;53.00;99794.22;5096781;28;20081;-57
2021/12/27 05:59:13;;;;;;;11.65;4.50;;;;;;;12.58;52.15;99798.41;5095217;28;20027;-58
2021/12/27 06:01:39;;;;;;;8.80;5.15;;;;;;;12.60;51.86;99801.75;5096881;28;20020;-55
2021/12/27 06:04:05;;;;;;;10.43;5.57;;;;;;;12.57;52.50;99791.34;5097064;28;20063;-55
2021/12/27 06:06:30;;;;;;;9.70;4.25;;;;;;;12.60;52.33;99793.69;5096715;28;20055;-55
2021/12/27 06:08:56;;;;;;;9.57;4.75;;;;;;;12.58;52.56;99796.56;5096976;28;20024;-55
2021/12/27 06:11:21;;;;;;;11.60;4.85;;;;;;;12.57;51.98;99791.34;5097105;28;20027;-55
2021/12/27 06:13:47;;;;;;;9.10;4.93;;;;;;;12.56;52.83;99790.50;5096955;28;20107;-56
2021/12/27 06:16:13;;;;;;;7.63;4.43;;;;;;;12.58;51.88;99791.19;5096894;28;20051;-55
2021/12/27 06:18:38;;;;;;;11.82;5.60;;;;;;;12.61;52.20;99795.38;5096710;28;20031;-56
2021/12/27 06:21:06;;;;;;;10.23;4.80;;;;;;;12.64;52.26;99792.38;5095657;28;20032;-56
2021/12/27 06:23:32;;;;;;;12.70;5.00;;;;;;;12.62;52.38;99783.63;5078464;28;20044;-56
2021/12/27 06:25:58;;;;;;;7.85;4.93;;;;;;;12.64;52.31;99800.44;5078245;28;20434;-55
2021/12/27 06:28:23;;;;;;;8.85;4.60;;;;;;;12.65;52.42;99796.72;5096851;28;20432;-56
2021/12/27 06:30:49;;;;;;;10.60;5.10;;;;;;;12.61;51.83;99790.00;5096732;28;20485;-57
2021/12/27 06:33:14;;;;;;;8.52;4.35;;;;;;;12.63;52.07;99790.69;5061684;28;20055;-58
2021/12/27 06:35:40;;;;;;;9.45;4.90;;;;;;;12.63;52.07;99788.00;5096296;28;20043;-58
2021/12/27 06:38:05;;;;;;;8.35;4.10;;;;;;;12.59;51.52;99784.78;5096327;28;20032;-57
2021/12/27 06:40:30;;;;;;;8.30;5.15;;;;;;;12.59;52.64;99783.97;5096252;28;20023;-58
2021/12/27 06:42:56;;;;;;;12.45;4.20;;;;;;;12.56;51.85;99781.63;5095924;28;20429;-58
2021/12/27 06:45:22;;;;;;;10.18;3.97;;;;;;;12.56;51.88;99784.31;5077936;28;20496;-58
2021/12/27 06:47:47;;;;;;;7.28;4.40;;;;;;;12.52;52.49;99777.56;5096270;28;20103;-56
2021/12/27 06:50:13;;;;;;;7.50;3.45;;;;;;;12.50;51.88;99785.81;5095992;28;20016;-56
2021/12/27 06:52:38;;;;;;;5.32;3.45;;;;;;;12.46;51.91;99778.25;5096025;28;20019;-55
2021/12/27 06:55:05;;;;;;;5.68;3.38;;;;;;;12.42;51.28;99777.75;5095894;28;20028;-56
2021/12/27 06:57:31;;;;;;;4.93;3.15;;;;;;;12.39;51.50;99772.72;5078299;28;20115;-57
2021/12/27 06:59:58;;;;;;;5.90;3.40;;;;;;;12.34;52.17;99763.47;5096202;28;20114;-57
2021/12/27 07:02:24;;;;;;;6.03;2.70;;;;;;;12.28;52.26;99760.44;5077658;28;20476;-55
2021/12/27 07:04:49;;;;;;;6.97;3.17;;;;;;;12.23;51.38;99762.78;5077469;28;20051;-55
2021/12/27 07:07:15;;;;;;;5.95;3.50;;;;;;;12.16;51.36;99759.09;5095599;28;20027;-56
2021/12/27 07:09:40;;;;;;;5.85;2.80;;;;;;;12.13;52.00;99761.25;5077552;28;20035;-56
2021/12/27 07:12:06;;;;;;;9.80;2.70;;;;;;;12.09;52.12;99766.13;5095480;28;20479;-56
2021/12/27 07:14:31;;;;;;;6.75;3.38;;;;;;;12.03;52.04;99758.72;5077723;28;20027;-56
2021/12/27 07:16:57;;;;;;;7.40;2.92;;;;;;;12.03;52.17;99764.09;5095756;28;20028;-56
2021/12/27 07:19:22;;;;;;;9.48;3.55;;;;;;;12.01;51.54;99763.41;5096295;28;20095;-56
2021/12/27 07:21:48;;;;;;;4.97;3.33;;;;;;;12.00;52.48;99761.75;5095642;28;20024;-55
2021/12/27 07:24:13;;;;;;;7.68;3.22;;;;;;;12.01;51.66;99762.56;5095662;28;20123;-56
2021/12/27 07:26:38;;;;;;;5.90;3.33;;;;;;;12.02;52.26;99759.75;5060447;28;20031;-55
2021/12/27 07:29:04;;;;;;;5.00;3.35;;;;;;;12.03;52.23;99750.66;5095863;28;20032;-55
2021/12/27 07:31:29;;;;;;;11.15;3.13;;;;;;;12.06;52.00;99747.66;5077177;28;20016;-55
2021/12/27 07:33:54;;;;;;;6.30;3.72;;;;;;;12.07;51.60;99746.66;5095189;28;20024;-56
2021/12/27 07:36:21;;;;;;;6.95;3.35;;;;;;;12.06;52.42;99744.97;5095462;28;20032;-56
2021/12/27 07:38:46;;;;;;;8.95;3.40;;;;;;;12.09;52.34;99738.44;5095118;28;20028;-56
2021/12/27 07:41:12;;;;;;;5.85;4.03;;;;;;;12.09;51.85;99739.28;5095014;28;20362;-55
2021/12/27 07:43:37;;;;;;;6.38;3.10;;;;;;;12.10;51.63;99735.59;5077290;28;20020;-56
2021/12/27 07:46:02;;;;;;;5.90;3.20;;;;;;;12.12;51.74;99748.84;5095050;28;20081;-56
2021/12/27 07:48:28;;;;;;;8.82;3.28;;;;;;;12.11;52.15;99750.72;5095152;28;20032;-56
2021/12/27 07:50:54;;;;;;;8.77;4.15;;;;;;;12.10;51.61;99751.69;5076932;28;20016;-56
2021/12/27 07:53:19;;;;;;;5.88;3.30;;;;;;;12.13;52.29;99748.69;5095193;28;20473;-55
2021/12/27 07:55:44;;;;;;;7.40;4.60;;;;;;;12.11;52.23;99753.38;5095119;28;20427;-56
2021/12/27 07:58:10;;;;;;;8.68;3.63;;;;;;;12.14;52.23;99771.81;5094834;28;20073;-57
2021/12/27 08:00:35;;;;;;;6.28;2.60;;;;;;;12.17;51.64;99757.25;5094795;28;20035;-56
2021/12/27 08:03:01;;;;;;;8.00;3.05;;;;;;;12.14;52.18;99744.16;5095213;28;20115;-56
2021/12/27 08:05:26;;;;;;;7.20;3.42;;;;;;;12.22;51.79;99749.53;5095128;28;20027;-55
2021/12/27 08:07:52;;;;;;;5.07;3.20;;;;;;;12.22;52.48;99750.38;5076163;28;20468;-55
2021/12/27 08:10:18;;;;;;;4.30;3.20;;;;;;;12.20;52.30;99748.84;5095208;28;20427;-57
2021/12/27 08:12:43;;;;;;;5.75;2.97;;;;;;;12.21;52.03;99746.00;5095182;28;20028;-55
2021/12/27 08:15:10;;;;;;;5.22;3.20;;;;;;;12.18;51.79;99732.91;5094460;28;20361;-56
2021/12/27 08:17:36;;;;;;;6.18;3.08;;;;;;;12.27;51.84;99736.44;5076470;28;20063;-56
2021/12/27 08:20:02;;;;;;;9.45;3.92;;;;;;;12.32;51.86;99739.47;5094483;28;20401;-57
2021/12/27 08:22:28;;;;;;;7.75;3.88;;;;;;;12.35;52.78;99740.97;5094648;28;20027;-57
2021/12/27 08:24:53;;;;;;;6.25;3.85;;;;;;;12.38;52.26;99737.97;5094374;28;20052;-58
2021/12/27 08:27:21;;;;;;;5.90;3.97;;;;;;;12.38;51.89;99720.00;5093865;28;20520;-58
2021/12/27 08:29:47;;;;;;;8.98;3.72;;;;;;;12.44;51.48;99721.19;5076052;28;20047;-59
2021/12/27 08:32:12;;;;;;;5.63;3.03;;;;;;;12.47;51.73;99726.22;5075946;28;20089;-58
2021/12/27 08:34:38;;;;;;;10.15;3.63;;;;;;;12.52;52.04;99718.50;5093801;28;20093;-58
2021/12/27 08:37:04;;;;;;;6.80;2.72;;;;;;;12.56;51.43;99722.53;5093729;28;20050;-57
2021/12/27 08:39:29;;;;;;;6.68;3.00;;;;;;;12.61;51.54;99712.09;5093838;28;20496;-57
2021/12/27 08:41:55;;;;;;;7.13;2.83;;;;;;;12.65;51.78;99710.75;5093660;28;20036;-57
2021/12/27 08:44:20;;;;;;;4.43;2.65;;;;;;;12.69;51.73;99714.78;5093234;28;20038;-59
2021/12/27 08:46:46;;;;;;;7.70;2.70;;;;;;;12.73;51.86;99713.44;5093690;28;20481;-59
2021/12/27 08:49:12;;;;;;;5.05;3.47;;;;;;;12.76;51.92;99699.63;5093606;28;20549;-58
2021/12/27 08:51:37;;;;;;;7.47;2.90;;;;;;;12.81;51.30;99708.06;5075235;28;20020;-58
2021/12/27 08:54:04;;;;;;;6.35;3.00;;;;;;;12.81;51.36;99700.00;5093666;28;20024;-58
2021/12/27 08:56:29;;;;;;;7.97;4.15;;;;;;;12.90;52.34;99709.69;5075889;28;20028;-58
2021/12/27 08:58:55;;;;;;;5.85;3.45;;;;;;;12.93;52.41;99714.72;5093944;28;20534;-58
2021/12/27 09:01:21;;;;;;;2.97;2.42;;;;;;;12.95;52.44;99710.03;5093437;28;20030;-58
2021/12/27 09:03:46;;;;;;;5.68;3.17;;;;;;;12.98;52.18;99708.84;5093643;28;20062;-59
2021/12/27 09:06:12;;;;;;;4.20;3.20;;;;;;;13.00;52.05;99707.66;5093569;28;20162;-58
2021/12/27 09:08:38;;;;;;;7.60;3.42;;;;;;;12.99;52.60;99700.59;5093322;28;20472;-58
2021/12/27 09:11:03;;;;;;;5.95;3.10;;;;;;;13.06;52.23;99709.69;5093337;28;20024;-58
2021/12/27 09:13:30;;;;;;;9.32;3.70;;;;;;;13.09;51.71;99703.94;5094038;28;20365;-58
2021/12/27 09:15:56;;;;;;;6.43;2.92;;;;;;;13.13;52.41;99713.38;5093823;28;20637;-58
2021/12/27 09:18:22;;;;;;;3.67;2.47;;;;;;;13.14;52.90;99704.31;5094034;28;20024;-59
2021/12/27 09:20:48;;;;;;;6.57;3.55;;;;;;;13.15;52.20;99705.97;5093730;28;20098;-59
2021/12/27 09:23:13;;;;;;;5.53;3.45;;;;;;;13.18;52.58;99699.38;5093750;28;20055;-59
2021/12/27 09:25:39;;;;;;;6.25;3.35;;;;;;;13.17;51.88;99698.56;5080400;28;20501;-58
2021/12/27 09:28:04;;;;;;;6.78;3.28;;;;;;;13.21;52.77;99699.88;5073384;28;20044;-57
2021/12/27 09:30:29;;;;;;;5.25;3.13;;;;;;;13.24;52.01;99688.78;5073466;28;20012;-58
2021/12/27 09:32:55;;;;;;;6.97;3.67;;;;;;;13.33;51.65;99690.44;5073510;28;20028;-58
2021/12/27 09:35:20;;;;;;;6.03;4.15;;;;;;;13.37;52.31;99689.06;5072934;28;20021;-58
2021/12/27 09:37:46;;;;;;;6.63;4.32;;;;;;;13.41;52.09;99689.56;5073438;28;20032;-58
2021/12/27 09:40:12;;;;;;;7.53;5.07;;;;;;;13.43;52.22;99691.06;5073400;28;20024;-58
2021/12/27 09:42:38;;;;;;;10.05;3.63;;;;;;;13.50;52.42;99687.66;5073422;28;20481;-58
2021/12/27 09:45:05;;;;;;;5.30;2.88;;;;;;;13.57;53.05;99688.66;5073634;28;20029;-58
2021/12/27 09:47:32;;;;;;;4.82;2.75;;;;;;;13.67;52.15;99689.25;5073401;28;20021;-57
2021/12/27 09:49:58;;;;;;;5.25;3.38;;;;;;;13.83;51.84;99678.38;5073577;28;20067;-57
2021/12/27 09:52:23;;;;;;;5.55;3.38;;;;;;;14.04;51.54;99677.75;5073605;28;20488;-57
2021/12/27 09:54:49;;;;;;;6.03;2.90;;;;;;;14.18;52.22;99677.78;5073104;28;20021;-58
2021/12/27 09:57:15;;;;;;;3.80;1.98;;;;;;;14.37;52.45;99674.66;5075826;28;20123;-58
2021/12/27 09:59:40;;;;;;;3.72;2.20;;;;;;;14.45;52.63;99669.19;5059002;28;20071;-58
2021/12/27 10:02:06;;;;;;;7.32;2.67;;;;;;;14.44;51.77;99674.75;5076463;28;20032;-58
2021/12/27 10:04:31;;;;;;;6.00;2.60;;;;;;;14.47;51.47;99672.53;5076779;28;20024;-58
2021/12/27 10:06:57;;;;;;;4.88;2.53;;;;;;;14.53;51.61;99671.81;5057485;28;20024;-58
2021/12/27 10:09:22;;;;;;;8.80;2.72;;;;;;;14.55;52.63;99667.06;5076514;28;20028;-57
2021/12/27 10:11:48;;;;;;;5.60;2.30;;;;;;;14.99;51.78;99666.28;5076675;28;20025;-58
2021/12/27 10:14:14;;;;;;;5.13;1.95;;;;;;;15.13;50.81;99655.47;5059203;28;20029;-58
2021/12/27 10:16:42;;;;;;;8.10;2.83;;;;;;;15.22;52.29;99667.00;5076567;28;20032;-58
2021/12/27 10:19:09;;;;;;;3.80;2.33;;;;;;;15.26;51.62;99671.00;5076326;28;20024;-58
2021/12/27 10:21:35;;;;;;;5.45;2.88;;;;;;;15.34;52.22;99657.41;5076502;28;20024;-58
2021/12/27 10:24:06;;;;;;;6.85;2.40;;;;;;;15.42;52.08;99668.09;5076426;28;20024;-58
2021/12/27 10:26:32;;;;;;;3.55;2.25;;;;;;;15.52;52.15;99662.44;5094370;28;20039;-58
2021/12/27 10:29:07;;;;;;;7.22;3.15;;;;;;;15.63;51.69;99653.84;5096885;28;20035;-57
2021/12/27 10:31:54;;;;;;;8.43;2.88;;;;;;;15.85;50.90;99652.84;5096676;28;20378;-58
2021/12/27 10:34:20;;;;;;;2.42;2.20;;;;;;;16.46;50.98;99639.69;5096537;28;20020;-58
2021/12/27 10:37:07;;;;;;;6.55;2.72;;;;;;;16.86;49.90;99637.06;5096550;28;20046;-58
2021/12/27 10:39:56;;;;;;;2.83;1.95;;;;;;;16.96;50.13;99641.31;5096468;28;20384;-58
2021/12/27 10:42:26;;;;;;;5.82;2.65;;;;;;;16.93;50.52;99630.88;5078025;28;20528;-58
2021/12/27 10:44:54;;;;;;;4.28;2.70;;;;;;;16.94;51.13;99646.09;5095955;28;20052;-59
2021/12/27 10:47:35;;;;;;;4.90;3.20;;;;;;;17.00;51.80;99642.59;5096778;28;20528;-58
2021/12/27 10:50:05;;;;;;;6.32;2.72;;;;;;;16.99;51.20;99638.19;5095943;28;20477;-59
2021/12/27 10:53:00;;;;;;;5.35;2.90;;;;;;;16.96;50.81;99631.31;5096483;28;20019;-57
2021/12/27 10:55:37;;;;;;;3.20;2.90;;;;;;;16.91;51.74;99638.34;5078276;28;20162;-57
2021/12/27 10:58:08;;;;;;;3.67;2.50;;;;;;;16.88;51.03;99640.44;5078522;28;20028;-58
2021/12/27 11:00:34;;;;;;;4.15;3.10;;;;;;;16.86;50.72;99637.06;5096214;28;20016;-58
2021/12/27 11:03:02;;;;;;;3.22;2.30;;;;;;;16.92;51.79;99631.94;5061548;28;20039;-58
2021/12/27 11:05:28;;;;;;;3.53;2.35;;;;;;;16.88;51.27;99631.47;5095852;28;20047;-57
2021/12/27 11:07:59;;;;;;;3.13;2.47;;;;;;;16.83;50.68;99631.25;5077450;28;20479;-57
2021/12/27 11:10:24;;;;;;;4.75;2.40;;;;;;;16.74;51.95;99621.63;5096334;28;20108;-57
2021/12/27 11:12:50;;;;;;;3.53;3.15;;;;;;;16.69;50.33;99630.34;5096020;28;20056;-58
2021/12/27 11:15:16;;;;;;;5.25;3.28;;;;;;;16.64;51.66;99619.25;5096441;28;20035;-57
2021/12/27 11:17:42;;;;;;;4.50;2.80;;;;;;;16.60;51.45;99617.16;5077288;28;20027;-58
2021/12/27 11:20:10;;;;;;;4.47;3.10;;;;;;;16.56;50.54;99616.69;5078111;28;20499;-58
2021/12/27 11:22:43;;;;;;;5.70;3.60;;;;;;;16.52;50.93;99612.72;5096027;28;20038;-58
2021/12/27 11:25:20;;;;;;;6.20;3.22;;;;;;;16.52;51.75;99610.00;5095588;28;20415;-57
2021/12/27 11:27:46;;;;;;;11.32;3.58;;;;;;;16.50;51.63;99609.34;5094402;28;20024;-57